Flight Track Log - Related Links

Times and Time Zones

All times are in EDT time to prevent confusion due to time zone crossing. See the UAL4663 flight status page for this flight to view local times or setup timezone preferences in your user account.

Time Position Orientation Groundspeed Altitude Reporting Facility
EDT Latitude Longitude Course Direction KTS MPH feet Rate Location/Type
Sun 02:17:44 PM 35.3017 -97.6019 175° South 220 253 4,000  Level Fort Worth Center
Sun 02:18:45 PM 35.2414 -97.5814 164° South 247 284 5,300 1,686 Climbing Fort Worth Center
Sun 02:19:00 PM 35.1248 -97.4815 168° South  Level Estimated
Sun 02:19:45 PM 35.1747 -97.5533 161° South 247 284 7,400  Level Fort Worth Center
Sun 02:20:00 PM 35.0353 -97.4419 154° Southeast  Level Estimated
Sun 02:20:45 PM 35.0933 -97.5658 187° South 257 296 9,600  Level Fort Worth Center
Sun 02:21:00 PM 34.9409 -97.4275 173° South  Level FlightAware Approximate
Sun 02:21:45 PM 35.0119 -97.5758 186° South 276 318 10,800  Level Fort Worth Center
Sun 02:22:00 PM 34.8465 -97.4131 173° South  Level FlightAware Approximate
Sun 02:22:45 PM 34.9264 -97.5403 161° South 306 352 11,300  Level Fort Worth Center
Sun 02:23:45 PM 34.8347 -97.4969 159° South 323 372 12,200 950 Climbing Fort Worth Center
Sun 02:24:45 PM 34.7431 -97.4489 157° South 342 394 13,200 1,000 Climbing Fort Worth Center
Sun 02:25:45 PM 34.6511 -97.4008 157° South 358 412 14,200 1,250 Climbing Fort Worth Center
Sun 02:26:45 PM 34.5553 -97.3531 158° South 368 423 15,700 1,550 Climbing Fort Worth Center
Sun 02:27:45 PM 34.4611 -97.3253 166° South 363 418 17,300 1,500 Climbing Fort Worth Center
Sun 02:28:45 PM 34.3694 -97.3003 167° South 356 410 18,700 1,000 Climbing Fort Worth Center
Sun 02:29:45 PM 34.2756 -97.2728 166° South 356 410 19,300 550 Climbing Fort Worth Center
Sun 02:30:45 PM 34.1753 -97.2453 167° South 356 410 19,800 450 Climbing Fort Worth Center
Sun 02:31:45 PM 34.0833 -97.2178 166° South 368 423 20,200 600 Climbing Fort Worth Center
Sun 02:32:45 PM 33.9769 -97.1881 167° South 382 440 21,000 700 Climbing Fort Worth Center
Sun 02:33:45 PM 33.8683 -97.1583 167° South 392 451 21,600 650 Climbing Fort Worth Center
Sun 02:34:45 PM 33.7494 -97.1286 168° South 398 458 22,300 850 Climbing Fort Worth Center
Sun 02:35:45 PM 33.6511 -97.1014 167° South 398 458 23,300 950 Climbing Fort Worth Center
Sun 02:36:45 PM 33.5467 -97.0719 167° South 398 458 24,200 950 Climbing Fort Worth Center
Sun 02:37:45 PM 33.4422 -97.0425 167° South 392 451 25,200 900 Climbing Fort Worth Center
Sun 02:38:45 PM 33.3378 -97.0156 168° South 392 451 26,000 400 Climbing Fort Worth Center
Sun 02:39:45 PM 33.2272 -96.9864 168° South 397 457 26,000  Level Fort Worth Center
Sun 02:40:45 PM 33.1122 -96.9547 167° South 409 471 26,000  Level Fort Worth Center
Sun 02:41:45 PM 32.9806 -96.9231 169° South 432 497 26,000  Level Fort Worth Center
Sun 02:42:45 PM 32.8594 -96.8892 167° South 440 506 26,000  Level Fort Worth Center
Sun 02:43:45 PM 32.7383 -96.8578 168° South 445 512 26,000  Level Fort Worth Center
Sun 02:44:45 PM 32.6169 -96.8239 167° South 452 520 26,000  Level Fort Worth Center
Sun 02:45:45 PM 32.4958 -96.7928 168° South 452 520 26,000  Level Fort Worth Center
Sun 02:46:45 PM 32.3744 -96.7592 167° South 452 520 26,000  Level Fort Worth Center
Sun 02:47:45 PM 32.2492 -96.7231 166° South 452 520 26,000  Level Fort Worth Center
Sun 02:48:45 PM 32.1256 -96.6897 167° South 452 520 26,000  Level Fort Worth Center
Sun 02:49:45 PM 32.0086 -96.6539 165° South 452 520 26,000  Level Fort Worth Center
Sun 02:50:45 PM 31.8997 -96.6231 166° South 452 520 26,000  Level Fort Worth Center
Sun 02:51:38 PM 31.7983 -96.5933 166° South 452 520 26,000  Level Houston Center
Sun 02:52:40 PM 31.6558 -96.5528 166° South 447 514 26,000  Level Houston Center
Sun 02:53:42 PM 31.5331 -96.5189 167° South 446 513 26,000 -290 Level Houston Center
Sun 02:54:44 PM 31.4147 -96.4750 162° South 441 507 25,400 -823 Descending Houston Center
Sun 02:55:46 PM 31.2986 -96.4311 162° South 433 498 24,300 -726 Descending Houston Center
Sun 02:56:48 PM 31.1797 -96.3872 162° South 441 507 23,900 -871 Descending Houston Center
Sun 02:57:50 PM 31.0667 -96.3442 162° South 427 491 22,500 -1,440 Descending Houston Center
Sun 02:58:53 PM 30.9517 -96.3017 162° South 427 491 20,900 -1,680 Descending Houston Center
Sun 02:59:55 PM 30.8417 -96.2589 162° South 416 479 19,000 -2,274 Descending Houston Center
Sun 03:00:57 PM 30.7447 -96.1681 141° Southeast 379 436 16,200 -2,419 Descending Houston Center
Sun 03:01:59 PM 30.6681 -96.0858 137° Southeast 372 428 14,000 -1,938 Descending Houston Center
Sun 03:03:07 PM 30.5847 -96.0006 139° Southeast 331 381 12,000 -1,403 Descending Houston Center
Sun 03:04:03 PM 30.5375 -95.9506 138° Southeast 315 362 11,100 -1,180 Descending Houston Center
Sun 03:04:08 PM 30.5225 -95.9350 138° Southeast 287 330 10,800 -1,161 Descending Houston Center
Sun 03:05:05 PM 30.4703 -95.8811 138° Southeast 273 314 9,900 -885 Descending Houston Center
Sun 03:05:09 PM 30.4647 -95.8761 142° Southeast 260 299 9,900 -1,065 Level Houston Center
Sun 03:06:07 PM 30.4228 -95.8300 137° Southeast 239 275 8,800 -1,279 Descending Houston Center
Sun 03:06:10 PM 30.4183 -95.8258 141° Southeast 231 266 8,600 -1,355 Descending Houston Center
Sun 03:07:09 PM 30.3761 -95.7819 138° Southeast 226 260 7,400 -1,258 Descending Houston Center
Sun 03:07:12 PM 30.3700 -95.7758 139° Southeast 227 261 7,300 -1,161 Descending Houston Center
Sun 03:08:11 PM 30.3306 -95.7336 137° Southeast 225 259 6,200 -1,164 Descending Houston Center
Sun 03:08:19 PM 30.3192 -95.7236 143° Southeast 219 252 6,000 -194 Descending Houston Center
Sun 03:09:13 PM 30.2853 -95.6869 137° Southeast 220 253 6,000  Level Houston Center
Sun 03:09:14 PM 30.2775 -95.6803 143° Southeast 221 254 6,000 -871 Level Houston Center
Sun 03:10:15 PM 30.2344 -95.6550 153° Southeast 207 238 5,100 -1,343 Descending Houston Center
Sun 03:10:21 PM 30.2178 -95.6461 155° Southeast 206 237 4,500 -1,839 Descending Houston Center
Sun 03:11:17 PM 30.1694 -95.6197 155° Southeast 215 247 3,200 -1,377 Descending Houston Center
Sun 03:11:22 PM 30.1628 -95.6164 157° South 223 257 3,100 -200 Descending Houston Center
Sun 03:12:17 PM 30.1100 -95.5889 156° South 223 257 3,000 -105 Descending Houston Center
Sun 03:12:19 PM 30.1125 -95.5900 339° North 220 253 3,000  Level Houston Center
Sun 03:13:19 PM 30.0631 -95.5583 151° Southeast 215 247 3,000  Level Houston Center
Sun 03:13:21 PM 30.0608 -95.5608 224° Southwest 215 247 3,000  Level Houston Center
Sun 03:14:26 PM 30.0503 -95.4872 99° East 193 222 3,000  Level Houston Center
Sun 03:15:27 PM 30.0811 -95.4547 42° Northeast 221 254 3,000  Level Houston Center
Sun 03:16:27 PM 30.1283 -95.4661 348° North 212 244 3,000  Level Houston Center
Sun 03:16:29 PM 30.1319 -95.4825 284° West 227 261 3,000  Level Houston Center
Sun 03:17:29 PM 30.1381 -95.5536 276° West 227 261 3,000  Level Houston Center
Sun 03:17:30 PM 30.1383 -95.5542 300° West 222 255 3,000  Level Houston Center
Sun 03:18:31 PM 30.1222 -95.6086 251° West 220 253 3,000  Level Houston Center
Sun 03:18:37 PM 30.1136 -95.6078 175° South 199 229 3,000  Level Houston Center
Sun 03:19:33 PM 30.0825 -95.5656 130° Southeast 185 213 3,000 -508 Level Houston Center
Sun 03:20:35 PM 30.0353 -95.5419 157° South 196 226 2,000 -909 Descending Houston Center
Sun 03:20:39 PM 30.0239 -95.5411 176° South 198 228 2,000 -100 Level Houston Center
Sun 03:21:35 PM 29.9936 -95.5086 137° Southeast 175 201 1,900 -103 Descending Houston Center
Sun 03:21:37 PM 29.9953 -95.5147 287° West 191 220 1,900 -200 Level Houston Center
Sun 03:22:35 PM 29.9928 -95.4531 93° East 161 185 1,700 -97 Descending Houston Center
Sun 03:22:39 PM 29.9944 -95.4578 292° West 185 213 1,800 -677 Climbing Houston Center
Sun 03:23:37 PM 29.9931 -95.4097 92° East 138 159 1,000 -871 Descending Houston Center
Sun 03:23:41 PM 29.9936 -95.4047 83° East 156 180 900 -655 Descending Houston Center
Sun 03:24:32 PM 29.9933 -95.3686 90° East 136 157 400 -484 Descending Houston Center
Sun 03:24:43 PM 29.9939 -95.3700 295° West 146 168 400  Level Houston Center

Login

Don't have an account? Register now (free) for customized features, flight alerts, and more!